sensor_id;sensor_type;location;lat;lon;timestamp;pressure;altitude;pressure_sealevel;temperature;humidity
64889;BME280;51386;53.082;8.816;2023-09-12T00:02:16;101163.38;;;27.96;56.44
64889;BME280;51386;53.082;8.816;2023-09-12T00:04:43;101152.03;;;27.89;56.57
64889;BME280;51386;53.082;8.816;2023-09-12T00:07:10;101143.13;;;27.84;56.91
64889;BME280;51386;53.082;8.816;2023-09-12T00:09:37;101117.72;;;27.80;57.14
64889;BME280;51386;53.082;8.816;2023-09-12T00:12:05;101122.91;;;27.76;57.32
64889;BME280;51386;53.082;8.816;2023-09-12T00:14:34;101112.63;;;27.73;57.21
64889;BME280;51386;53.082;8.816;2023-09-12T00:17:01;101083.44;;;27.65;57.68
64889;BME280;51386;53.082;8.816;2023-09-12T00:19:28;101052.91;;;27.60;58.01
64889;BME280;51386;53.082;8.816;2023-09-12T00:21:55;101034.22;;;27.58;58.12
64889;BME280;51386;53.082;8.816;2023-09-12T00:24:22;101032.66;;;27.52;58.28
64889;BME280;51386;53.082;8.816;2023-09-12T00:26:49;101030.78;;;27.47;58.42
64889;BME280;51386;53.082;8.816;2023-09-12T00:29:16;101044.06;;;27.44;58.46
64889;BME280;51386;53.082;8.816;2023-09-12T00:31:45;101052.19;;;27.39;58.60
64889;BME280;51386;53.082;8.816;2023-09-12T00:34:16;101064.09;;;27.38;58.63
64889;BME280;51386;53.082;8.816;2023-09-12T00:36:43;101073.81;;;27.39;58.68
64889;BME280;51386;53.082;8.816;2023-09-12T00:39:10;101066.81;;;27.38;58.39
64889;BME280;51386;53.082;8.816;2023-09-12T00:41:37;101065.69;;;27.34;58.48
64889;BME280;51386;53.082;8.816;2023-09-12T00:44:05;101065.16;;;27.32;58.76
64889;BME280;51386;53.082;8.816;2023-09-12T00:46:34;101054.38;;;27.27;59.32
64889;BME280;51386;53.082;8.816;2023-09-12T00:49:06;101061.19;;;27.19;59.00
64889;BME280;51386;53.082;8.816;2023-09-12T00:51:34;101097.69;;;27.17;59.17
64889;BME280;51386;53.082;8.816;2023-09-12T00:54:03;101126.09;;;27.14;58.71
64889;BME280;51386;53.082;8.816;2023-09-12T00:56:30;101140.44;;;27.10;59.06
64889;BME280;51386;53.082;8.816;2023-09-12T00:58:58;101160.44;;;27.09;59.25
64889;BME280;51386;53.082;8.816;2023-09-12T01:01:26;101155.03;;;27.09;59.17
64889;BME280;51386;53.082;8.816;2023-09-12T01:03:55;101164.47;;;27.11;59.02
64889;BME280;51386;53.082;8.816;2023-09-12T01:06:24;101172.88;;;27.10;58.72
64889;BME280;51386;53.082;8.816;2023-09-12T01:08:55;101182.06;;;27.09;59.17
64889;BME280;51386;53.082;8.816;2023-09-12T01:11:23;101190.97;;;27.09;59.49
64889;BME280;51386;53.082;8.816;2023-09-12T01:13:51;101188.00;;;27.11;59.12
64889;BME280;51386;53.082;8.816;2023-09-12T01:16:18;101192.31;;;27.12;58.84
64889;BME280;51386;53.082;8.816;2023-09-12T01:18:45;101169.59;;;27.13;59.14
64889;BME280;51386;53.082;8.816;2023-09-12T01:21:38;101169.59;;;27.08;58.91
64889;BME280;51386;53.082;8.816;2023-09-12T01:24:52;101164.75;;;27.05;59.09
64889;BME280;51386;53.082;8.816;2023-09-12T01:27:30;101169.06;;;27.11;58.98
64889;BME280;51386;53.082;8.816;2023-09-12T01:30:03;101170.69;;;27.12;58.83
64889;BME280;51386;53.082;8.816;2023-09-12T01:32:32;101171.53;;;27.12;58.96
64889;BME280;51386;53.082;8.816;2023-09-12T01:35:00;101160.69;;;27.12;58.91
64889;BME280;51386;53.082;8.816;2023-09-12T01:37:27;101183.66;;;27.15;58.83
64889;BME280;51386;53.082;8.816;2023-09-12T01:39:54;101207.72;;;27.11;59.17
64889;BME280;51386;53.082;8.816;2023-09-12T01:42:22;101199.63;;;27.06;58.88
64889;BME280;51386;53.082;8.816;2023-09-12T01:44:55;101195.84;;;26.97;58.89
64889;BME280;51386;53.082;8.816;2023-09-12T01:47:23;101188.03;;;26.96;58.85
64889;BME280;51386;53.082;8.816;2023-09-12T01:49:55;101163.41;;;26.92;59.24
64889;BME280;51386;53.082;8.816;2023-09-12T01:52:26;101168.28;;;26.90;59.55
64889;BME280;51386;53.082;8.816;2023-09-12T01:54:55;101169.13;;;26.91;59.90
64889;BME280;51386;53.082;8.816;2023-09-12T01:57:23;101155.31;;;26.92;59.82
64889;BME280;51386;53.082;8.816;2023-09-12T01:59:52;101145.84;;;26.95;59.94
64889;BME280;51386;53.082;8.816;2023-09-12T02:02:19;101142.09;;;26.96;60.38
64889;BME280;51386;53.082;8.816;2023-09-12T02:04:54;101133.41;;;26.99;60.14
64889;BME280;51386;53.082;8.816;2023-09-12T02:07:29;101113.72;;;26.93;60.19
64889;BME280;51386;53.082;8.816;2023-09-12T02:09:58;101104.25;;;26.91;60.82
64889;BME280;51386;53.082;8.816;2023-09-12T02:12:25;101113.44;;;26.90;60.88
64889;BME280;51386;53.082;8.816;2023-09-12T02:14:54;101138.28;;;26.92;60.59
64889;BME280;51386;53.082;8.816;2023-09-12T02:17:21;101140.72;;;26.93;60.44
64889;BME280;51386;53.082;8.816;2023-09-12T02:19:48;101136.13;;;26.94;60.12
64889;BME280;51386;53.082;8.816;2023-09-12T02:22:15;101166.41;;;26.96;60.29
64889;BME280;51386;53.082;8.816;2023-09-12T02:24:42;101176.66;;;26.94;60.52
64889;BME280;51386;53.082;8.816;2023-09-12T02:27:09;101185.88;;;26.93;60.33
64889;BME280;51386;53.082;8.816;2023-09-12T02:29:38;101192.63;;;26.95;60.21
64889;BME280;51386;53.082;8.816;2023-09-12T02:32:07;101194.75;;;26.98;60.81
64889;BME280;51386;53.082;8.816;2023-09-12T02:34:34;101176.94;;;27.02;60.78
64889;BME280;51386;53.082;8.816;2023-09-12T02:37:01;101165.84;;;27.04;60.42
64889;BME280;51386;53.082;8.816;2023-09-12T02:39:28;101156.13;;;27.03;60.55
64889;BME280;51386;53.082;8.816;2023-09-12T02:41:55;101152.84;;;27.06;60.25
64889;BME280;51386;53.082;8.816;2023-09-12T02:44:22;101144.22;;;27.09;60.03
64889;BME280;51386;53.082;8.816;2023-09-12T02:46:50;101136.63;;;27.11;60.16
64889;BME280;51386;53.082;8.816;2023-09-12T02:49:19;101155.84;;;27.09;60.11
64889;BME280;51386;53.082;8.816;2023-09-12T02:51:46;101178.00;;;27.06;59.96
64889;BME280;51386;53.082;8.816;2023-09-12T02:54:13;101199.91;;;27.05;59.91
64889;BME280;51386;53.082;8.816;2023-09-12T02:56:40;101200.16;;;27.03;59.85
64889;BME280;51386;53.082;8.816;2023-09-12T02:59:07;101202.31;;;27.01;59.73
64889;BME280;51386;53.082;8.816;2023-09-12T03:01:34;101195.56;;;26.94;59.80
64889;BME280;51386;53.082;8.816;2023-09-12T03:04:01;101176.13;;;26.81;60.66
64889;BME280;51386;53.082;8.816;2023-09-12T03:06:31;101170.16;;;26.74;60.95
64889;BME280;51386;53.082;8.816;2023-09-12T03:08:58;101166.13;;;26.67;61.30
64889;BME280;51386;53.082;8.816;2023-09-12T03:11:26;101160.44;;;26.58;61.12
64889;BME280;51386;53.082;8.816;2023-09-12T03:13:54;101167.47;;;26.49;61.55
64889;BME280;51386;53.082;8.816;2023-09-12T03:16:21;101160.69;;;26.42;62.33
64889;BME280;51386;53.082;8.816;2023-09-12T03:18:50;101163.13;;;26.33;62.20
64889;BME280;51386;53.082;8.816;2023-09-12T03:21:18;101166.63;;;26.29;62.67
64889;BME280;51386;53.082;8.816;2023-09-12T03:23:46;101166.09;;;26.22;63.13
64889;BME280;51386;53.082;8.816;2023-09-12T03:26:14;101155.00;;;26.18;62.66
64889;BME280;51386;53.082;8.816;2023-09-12T03:28:41;101151.75;;;26.16;63.07
64889;BME280;51386;53.082;8.816;2023-09-12T03:31:10;101143.13;;;26.14;63.48
64889;BME280;51386;53.082;8.816;2023-09-12T03:33:42;101142.59;;;26.12;63.36
64889;BME280;51386;53.082;8.816;2023-09-12T03:36:09;101143.66;;;26.11;63.54
64889;BME280;51386;53.082;8.816;2023-09-12T03:38:37;101127.44;;;26.11;63.37
64889;BME280;51386;53.082;8.816;2023-09-12T03:41:05;101122.06;;;26.11;62.92
64889;BME280;51386;53.082;8.816;2023-09-12T03:43:33;101114.50;;;26.13;63.52
64889;BME280;51386;53.082;8.816;2023-09-12T03:46:00;101106.94;;;26.15;63.50
64889;BME280;51386;53.082;8.816;2023-09-12T03:48:27;101091.84;;;26.19;63.09
64889;BME280;51386;53.082;8.816;2023-09-12T03:50:57;101098.31;;;26.23;63.43
64889;BME280;51386;53.082;8.816;2023-09-12T03:53:24;101082.66;;;26.30;63.04
64889;BME280;51386;53.082;8.816;2023-09-12T03:55:53;101076.44;;;26.35;63.14
64889;BME280;51386;53.082;8.816;2023-09-12T03:58:21;101052.97;;;26.40;63.31
64889;BME280;51386;53.082;8.816;2023-09-12T04:00:49;101056.19;;;26.47;62.93
64889;BME280;51386;53.082;8.816;2023-09-12T04:03:16;101042.69;;;26.52;63.13
64889;BME280;51386;53.082;8.816;2023-09-12T04:05:46;101036.75;;;26.55;62.70
64889;BME280;51386;53.082;8.816;2023-09-12T04:08:13;101040.50;;;26.59;62.60
64889;BME280;51386;53.082;8.816;2023-09-12T04:10:40;101049.16;;;26.61;62.78
64889;BME280;51386;53.082;8.816;2023-09-12T04:13:07;101066.44;;;26.65;62.11
64889;BME280;51386;53.082;8.816;2023-09-12T04:15:36;101090.19;;;26.68;62.53
64889;BME280;51386;53.082;8.816;2023-09-12T04:18:04;101120.97;;;26.72;62.16
64889;BME280;51386;53.082;8.816;2023-09-12T04:20:31;101126.91;;;26.74;61.84
64889;BME280;51386;53.082;8.816;2023-09-12T04:23:01;101133.44;;;26.78;61.73
64889;BME280;51386;53.082;8.816;2023-09-12T04:25:29;101122.09;;;26.81;61.63
64889;BME280;51386;53.082;8.816;2023-09-12T04:27:57;101119.38;;;26.81;61.73
64889;BME280;51386;53.082;8.816;2023-09-12T04:30:24;101128.59;;;26.80;61.77
64889;BME280;51386;53.082;8.816;2023-09-12T04:32:52;101143.44;;;26.78;61.22
64889;BME280;51386;53.082;8.816;2023-09-12T04:35:20;101129.41;;;26.76;61.37
64889;BME280;51386;53.082;8.816;2023-09-12T04:37:47;101118.81;;;26.74;61.54
64889;BME280;51386;53.082;8.816;2023-09-12T04:40:15;101122.91;;;26.72;61.22
64889;BME280;51386;53.082;8.816;2023-09-12T04:42:42;101125.03;;;26.70;61.18
64889;BME280;51386;53.082;8.816;2023-09-12T04:45:09;101122.63;;;26.68;61.54
64889;BME280;51386;53.082;8.816;2023-09-12T04:47:37;101114.50;;;26.63;61.53
64889;BME280;51386;53.082;8.816;2023-09-12T04:50:06;101115.06;;;26.60;61.55
64889;BME280;51386;53.082;8.816;2023-09-12T04:52:33;101108.03;;;26.59;61.73
64889;BME280;51386;53.082;8.816;2023-09-12T04:55:01;101111.28;;;26.61;61.72
64889;BME280;51386;53.082;8.816;2023-09-12T04:57:28;101124.25;;;26.64;61.41
64889;BME280;51386;53.082;8.816;2023-09-12T04:59:58;101136.41;;;26.67;61.12
64889;BME280;51386;53.082;8.816;2023-09-12T05:02:25;101142.59;;;26.67;61.19
64889;BME280;51386;53.082;8.816;2023-09-12T05:04:53;101145.88;;;26.69;61.35
64889;BME280;51386;53.082;8.816;2023-09-12T05:07:21;101153.97;;;26.69;61.32
64889;BME280;51386;53.082;8.816;2023-09-12T05:09:49;101152.63;;;26.67;61.13
64889;BME280;51386;53.082;8.816;2023-09-12T05:12:16;101146.41;;;26.66;61.24
64889;BME280;51386;53.082;8.816;2023-09-12T05:14:43;101137.75;;;26.64;60.68
64889;BME280;51386;53.082;8.816;2023-09-12T05:17:10;101143.94;;;26.65;60.74
64889;BME280;51386;53.082;8.816;2023-09-12T05:19:37;101144.75;;;26.65;61.09
64889;BME280;51386;53.082;8.816;2023-09-12T05:22:04;101131.00;;;26.67;61.32
64889;BME280;51386;53.082;8.816;2023-09-12T05:24:33;101135.06;;;26.69;60.71
64889;BME280;51386;53.082;8.816;2023-09-12T05:27:00;101132.88;;;26.71;61.06
64889;BME280;51386;53.082;8.816;2023-09-12T05:29:27;101134.50;;;26.72;60.97
64889;BME280;51386;53.082;8.816;2023-09-12T05:31:54;101131.25;;;26.70;61.08
64889;BME280;51386;53.082;8.816;2023-09-12T05:34:21;101136.13;;;26.68;60.79
64889;BME280;51386;53.082;8.816;2023-09-12T05:36:48;101128.56;;;26.65;60.66
64889;BME280;51386;53.082;8.816;2023-09-12T05:39:15;101127.75;;;26.65;60.92
64889;BME280;51386;53.082;8.816;2023-09-12T05:41:44;101132.59;;;26.68;60.84
64889;BME280;51386;53.082;8.816;2023-09-12T05:44:11;101142.06;;;26.70;60.80
64889;BME280;51386;53.082;8.816;2023-09-12T05:46:39;101135.31;;;26.73;60.91
64889;BME280;51386;53.082;8.816;2023-09-12T05:49:06;101145.03;;;26.74;60.65
64889;BME280;51386;53.082;8.816;2023-09-12T05:51:33;101144.78;;;26.75;61.21
64889;BME280;51386;53.082;8.816;2023-09-12T05:54:00;101143.44;;;26.78;61.34
64889;BME280;51386;53.082;8.816;2023-09-12T05:56:28;101152.91;;;26.80;61.01
64889;BME280;51386;53.082;8.816;2023-09-12T05:58:56;101153.44;;;26.82;61.00
64889;BME280;51386;53.082;8.816;2023-09-12T06:01:23;101156.66;;;26.79;60.69
64889;BME280;51386;53.082;8.816;2023-09-12T06:03:50;101162.63;;;26.76;60.28
64889;BME280;51386;53.082;8.816;2023-09-12T06:06:18;101157.25;;;26.76;60.50
64889;BME280;51386;53.082;8.816;2023-09-12T06:08:45;101164.78;;;26.69;60.75
64889;BME280;51386;53.082;8.816;2023-09-12T06:11:12;101163.13;;;26.63;60.98
64889;BME280;51386;53.082;8.816;2023-09-12T06:13:39;101168.00;;;26.56;60.68
64889;BME280;51386;53.082;8.816;2023-09-12T06:16:07;101161.53;;;26.52;60.88
64889;BME280;51386;53.082;8.816;2023-09-12T06:18:34;101156.13;;;26.47;61.10
64889;BME280;51386;53.082;8.816;2023-09-12T06:21:02;101159.34;;;26.44;61.11
64889;BME280;51386;53.082;8.816;2023-09-12T06:23:33;101160.97;;;26.45;61.13
64889;BME280;51386;53.082;8.816;2023-09-12T06:26:00;101157.72;;;26.48;61.13
64889;BME280;51386;53.082;8.816;2023-09-12T06:28:28;101153.69;;;26.56;61.25
64889;BME280;51386;53.082;8.816;2023-09-12T06:30:56;101151.25;;;26.59;61.37
64889;BME280;51386;53.082;8.816;2023-09-12T06:33:26;101146.94;;;26.63;61.02
64889;BME280;51386;53.082;8.816;2023-09-12T06:35:55;101163.69;;;26.70;61.43
64889;BME280;51386;53.082;8.816;2023-09-12T06:38:22;101155.88;;;26.79;61.31
64889;BME280;51386;53.082;8.816;2023-09-12T06:40:50;101156.13;;;26.82;60.90
64889;BME280;51386;53.082;8.816;2023-09-12T06:43:18;101146.69;;;26.85;61.09
64889;BME280;51386;53.082;8.816;2023-09-12T06:45:46;101145.31;;;26.88;60.58
64889;BME280;51386;53.082;8.816;2023-09-12T06:48:13;101149.66;;;26.89;60.41
64889;BME280;51386;53.082;8.816;2023-09-12T06:50:42;101139.09;;;26.92;60.20
64889;BME280;51386;53.082;8.816;2023-09-12T06:53:13;101145.03;;;26.94;60.04
64889;BME280;51386;53.082;8.816;2023-09-12T06:55:40;101143.69;;;26.97;59.46
64889;BME280;51386;53.082;8.816;2023-09-12T06:58:07;101138.81;;;26.99;59.92
64889;BME280;51386;53.082;8.816;2023-09-12T07:00:34;101144.75;;;27.06;60.17
64889;BME280;51386;53.082;8.816;2023-09-12T07:03:02;101155.00;;;27.14;60.41
64889;BME280;51386;53.082;8.816;2023-09-12T07:05:29;101153.66;;;27.21;59.76
64889;BME280;51386;53.082;8.816;2023-09-12T07:07:57;101147.94;;;27.28;59.50
64889;BME280;51386;53.082;8.816;2023-09-12T07:10:25;101148.75;;;27.33;58.98
64889;BME280;51386;53.082;8.816;2023-09-12T07:12:53;101143.34;;;27.38;58.87
64889;BME280;51386;53.082;8.816;2023-09-12T07:15:21;101136.56;;;27.41;58.42
64889;BME280;51386;53.082;8.816;2023-09-12T07:17:48;101141.41;;;27.44;58.13
64889;BME280;51386;53.082;8.816;2023-09-12T07:20:15;101138.69;;;27.49;58.55
64889;BME280;51386;53.082;8.816;2023-09-12T07:22:44;101152.22;;;27.54;58.46
64889;BME280;51386;53.082;8.816;2023-09-12T07:25:14;101163.28;;;27.58;57.99
64889;BME280;51386;53.082;8.816;2023-09-12T07:27:41;101158.69;;;27.58;57.83
64889;BME280;51386;53.082;8.816;2023-09-12T07:30:10;101165.72;;;27.59;57.90
64889;BME280;51386;53.082;8.816;2023-09-12T07:32:37;101163.53;;;27.61;57.49
64889;BME280;51386;53.082;8.816;2023-09-12T07:35:05;101168.94;;;27.61;57.31
64889;BME280;51386;53.082;8.816;2023-09-12T07:37:32;101174.06;;;27.63;57.16
64889;BME280;51386;53.082;8.816;2023-09-12T07:39:59;101173.56;;;27.61;56.92
64889;BME280;51386;53.082;8.816;2023-09-12T07:42:27;101181.44;;;27.57;56.80
64889;BME280;51386;53.082;8.816;2023-09-12T07:44:55;101179.00;;;27.50;56.98
64889;BME280;51386;53.082;8.816;2023-09-12T07:47:22;101176.03;;;27.52;56.91
64889;BME280;51386;53.082;8.816;2023-09-12T07:49:53;101184.97;;;27.52;56.68
64889;BME280;51386;53.082;8.816;2023-09-12T07:52:21;101186.56;;;27.53;57.38
64889;BME280;51386;53.082;8.816;2023-09-12T07:54:49;101199.53;;;27.57;56.79
64889;BME280;51386;53.082;8.816;2023-09-12T07:57:19;101203.59;;;27.59;57.17
64889;BME280;51386;53.082;8.816;2023-09-12T07:59:48;101198.19;;;27.59;56.66
64889;BME280;51386;53.082;8.816;2023-09-12T08:02:15;101193.59;;;27.55;56.59
64889;BME280;51386;53.082;8.816;2023-09-12T08:04:42;101188.44;;;27.53;56.24
64889;BME280;51386;53.082;8.816;2023-09-12T08:07:09;101196.03;;;27.56;56.37
64889;BME280;51386;53.082;8.816;2023-09-12T08:09:50;101193.84;;;27.58;56.53
64889;BME280;51386;53.082;8.816;2023-09-12T08:12:18;101200.34;;;27.62;56.29
64889;BME280;51386;53.082;8.816;2023-09-12T08:14:47;101213.88;;;27.62;56.03
64889;BME280;51386;53.082;8.816;2023-09-12T08:17:15;101220.09;;;27.58;55.64
64889;BME280;51386;53.082;8.816;2023-09-12T08:19:43;101214.72;;;27.52;55.72
64889;BME280;51386;53.082;8.816;2023-09-12T08:22:11;101212.28;;;27.51;55.57
64889;BME280;51386;53.082;8.816;2023-09-12T08:24:39;101208.22;;;27.48;55.82
64889;BME280;51386;53.082;8.816;2023-09-12T08:27:07;101213.91;;;27.52;55.72
64889;BME280;51386;53.082;8.816;2023-09-12T08:29:34;101217.38;;;27.58;55.65
64889;BME280;51386;53.082;8.816;2023-09-12T08:32:03;101222.53;;;27.64;55.64
64889;BME280;51386;53.082;8.816;2023-09-12T08:34:30;101213.31;;;27.65;55.50
64889;BME280;51386;53.082;8.816;2023-09-12T08:36:57;101217.34;;;27.68;55.29
64889;BME280;51386;53.082;8.816;2023-09-12T08:39:27;101219.53;;;27.71;55.47
64889;BME280;51386;53.082;8.816;2023-09-12T08:41:54;101218.97;;;27.74;55.03
64889;BME280;51386;53.082;8.816;2023-09-12T08:44:21;101217.06;;;27.74;55.22
64889;BME280;51386;53.082;8.816;2023-09-12T08:46:49;101213.81;;;27.72;54.76
64889;BME280;51386;53.082;8.816;2023-09-12T08:49:17;101230.63;;;27.69;54.31
64889;BME280;51386;53.082;8.816;2023-09-12T08:51:44;101223.59;;;27.63;54.06
64889;BME280;51386;53.082;8.816;2023-09-12T08:54:12;101232.25;;;27.60;54.62
64889;BME280;51386;53.082;8.816;2023-09-12T08:56:41;101226.06;;;27.60;54.18
64889;BME280;51386;53.082;8.816;2023-09-12T08:59:11;101222.25;;;27.61;54.28
64889;BME280;51386;53.082;8.816;2023-09-12T09:01:39;101219.28;;;27.62;54.33
64889;BME280;51386;53.082;8.816;2023-09-12T09:04:07;101229.53;;;27.60;54.34
64889;BME280;51386;53.082;8.816;2023-09-12T09:06:36;101229.03;;;27.58;54.33
64889;BME280;51386;53.082;8.816;2023-09-12T09:09:06;101232.84;;;27.57;54.19
64889;BME280;51386;53.082;8.816;2023-09-12T09:11:35;101238.78;;;27.54;53.90
64889;BME280;51386;53.082;8.816;2023-09-12T09:14:02;101243.66;;;27.47;54.21
64889;BME280;51386;53.082;8.816;2023-09-12T09:16:30;101253.97;;;27.40;54.04
64889;BME280;51386;53.082;8.816;2023-09-12T09:19:00;101257.16;;;27.37;54.29
64889;BME280;51386;53.082;8.816;2023-09-12T09:21:29;101261.53;;;27.28;54.33
64889;BME280;51386;53.082;8.816;2023-09-12T09:24:02;101269.09;;;27.16;54.61
64889;BME280;51386;53.082;8.816;2023-09-12T09:26:42;101270.19;;;27.10;54.93
64889;BME280;51386;53.082;8.816;2023-09-12T09:29:13;101268.56;;;27.09;54.86
64889;BME280;51386;53.082;8.816;2023-09-12T09:31:42;101272.34;;;27.03;55.26
64889;BME280;51386;53.082;8.816;2023-09-12T09:34:13;101278.81;;;26.86;54.52
64889;BME280;51386;53.082;8.816;2023-09-12T09:36:44;101284.72;;;26.68;55.69
64889;BME280;51386;53.082;8.816;2023-09-12T09:39:13;101281.44;;;26.56;56.51
64889;BME280;51386;53.082;8.816;2023-09-12T09:41:41;101288.72;;;26.51;56.24
64889;BME280;51386;53.082;8.816;2023-09-12T09:44:09;101284.94;;;26.47;56.99
64889;BME280;51386;53.082;8.816;2023-09-12T09:46:37;101289.78;;;26.45;56.85
64889;BME280;51386;53.082;8.816;2023-09-12T09:49:05;101296.00;;;26.45;56.79
64889;BME280;51386;53.082;8.816;2023-09-12T09:51:41;101297.63;;;26.46;56.80
64889;BME280;51386;53.082;8.816;2023-09-12T09:54:12;101297.09;;;26.49;56.99
64889;BME280;51386;53.082;8.816;2023-09-12T09:56:45;101304.66;;;26.47;57.15
64889;BME280;51386;53.082;8.816;2023-09-12T09:59:15;101300.84;;;26.48;57.16
64889;BME280;51386;53.082;8.816;2023-09-12T10:01:44;101294.41;;;26.49;57.15
64889;BME280;51386;53.082;8.816;2023-09-12T10:04:12;101293.88;;;26.52;57.14
64889;BME280;51386;53.082;8.816;2023-09-12T10:06:45;101294.41;;;26.54;57.33
64889;BME280;51386;53.082;8.816;2023-09-12T10:09:15;101290.66;;;26.55;56.97
64889;BME280;51386;53.082;8.816;2023-09-12T10:11:46;101288.44;;;26.47;56.87
64889;BME280;51386;53.082;8.816;2023-09-12T10:14:18;101291.41;;;26.41;57.21
64889;BME280;51386;53.082;8.816;2023-09-12T10:16:48;101290.06;;;26.43;57.33
64889;BME280;51386;53.082;8.816;2023-09-12T10:19:18;101284.09;;;26.31;57.59
64889;BME280;51386;53.082;8.816;2023-09-12T10:21:50;101280.25;;;26.22;57.92
64889;BME280;51386;53.082;8.816;2023-09-12T10:24:24;101276.22;;;26.30;57.70
64889;BME280;51386;53.082;8.816;2023-09-12T10:26:53;101282.47;;;26.35;58.22
64889;BME280;51386;53.082;8.816;2023-09-12T10:29:21;101287.84;;;26.30;57.76
64889;BME280;51386;53.082;8.816;2023-09-12T10:31:49;101275.94;;;26.16;58.10
64889;BME280;51386;53.082;8.816;2023-09-12T10:34:18;101273.41;;;25.99;58.26
64889;BME280;51386;53.082;8.816;2023-09-12T10:36:46;101272.56;;;25.94;58.51
64889;BME280;51386;53.082;8.816;2023-09-12T10:39:15;101263.66;;;25.93;58.96
64889;BME280;51386;53.082;8.816;2023-09-12T10:41:43;101267.72;;;26.01;58.40
64889;BME280;51386;53.082;8.816;2023-09-12T10:44:15;101259.94;;;26.09;58.36
64889;BME280;51386;53.082;8.816;2023-09-12T10:46:45;101250.00;;;26.20;58.35
64889;BME280;51386;53.082;8.816;2023-09-12T10:49:14;101247.84;;;26.22;57.57
64889;BME280;51386;53.082;8.816;2023-09-12T10:51:43;101243.28;;;26.23;57.98
64889;BME280;51386;53.082;8.816;2023-09-12T10:54:15;101233.84;;;26.25;57.37
64889;BME280;51386;53.082;8.816;2023-09-12T10:56:43;101241.41;;;26.28;57.44
64889;BME280;51386;53.082;8.816;2023-09-12T10:59:16;101228.19;;;26.27;57.39
64889;BME280;51386;53.082;8.816;2023-09-12T11:01:44;101222.50;;;26.28;56.94
64889;BME280;51386;53.082;8.816;2023-09-12T11:04:34;101216.56;;;26.26;57.54
64889;BME280;51386;53.082;8.816;2023-09-12T11:07:02;101215.25;;;26.34;57.56
64889;BME280;51386;53.082;8.816;2023-09-12T11:10:17;101210.09;;;26.37;58.15
64889;BME280;51386;53.082;8.816;2023-09-12T11:12:49;101203.94;;;26.52;57.59
64889;BME280;51386;53.082;8.816;2023-09-12T11:15:19;101204.75;;;26.62;57.05
64889;BME280;51386;53.082;8.816;2023-09-12T11:18:00;101216.09;;;26.69;56.61
64889;BME280;51386;53.082;8.816;2023-09-12T11:20:50;101217.19;;;26.73;56.46
64889;BME280;51386;53.082;8.816;2023-09-12T11:23:22;101222.09;;;26.76;56.05
64889;BME280;51386;53.082;8.816;2023-09-12T11:26:04;101223.66;;;26.72;56.48
64889;BME280;51386;53.082;8.816;2023-09-12T11:28:41;101225.31;;;26.78;56.69
64889;BME280;51386;53.082;8.816;2023-09-12T11:31:11;101236.94;;;26.89;56.32
64889;BME280;51386;53.082;8.816;2023-09-12T11:33:45;101240.69;;;26.98;55.80
64889;BME280;51386;53.082;8.816;2023-09-12T11:36:15;101248.03;;;27.03;55.95
64889;BME280;51386;53.082;8.816;2023-09-12T11:38:49;101261.53;;;26.98;56.21
64889;BME280;51386;53.082;8.816;2023-09-12T11:41:41;101268.56;;;26.99;55.69
64889;BME280;51386;53.082;8.816;2023-09-12T11:44:25;101254.22;;;27.03;55.76
64889;BME280;51386;53.082;8.816;2023-09-12T11:46:54;101254.50;;;27.12;55.84
64889;BME280;51386;53.082;8.816;2023-09-12T11:49:22;101248.28;;;27.26;54.93
64889;BME280;51386;53.082;8.816;2023-09-12T11:51:51;101250.44;;;27.44;54.67
64889;BME280;51386;53.082;8.816;2023-09-12T11:54:20;101244.72;;;27.61;53.87
64889;BME280;51386;53.082;8.816;2023-09-12T11:56:48;101255.22;;;27.78;53.57
64889;BME280;51386;53.082;8.816;2023-09-12T11:59:16;101244.59;;;27.91;53.10
64889;BME280;51386;53.082;8.816;2023-09-12T12:01:47;101234.81;;;28.05;52.70
64889;BME280;51386;53.082;8.816;2023-09-12T12:04:14;101242.59;;;28.17;52.19
64889;BME280;51386;53.082;8.816;2023-09-12T12:06:42;101247.22;;;28.22;51.56
64889;BME280;51386;53.082;8.816;2023-09-12T12:09:11;101239.63;;;28.24;51.54
64889;BME280;51386;53.082;8.816;2023-09-12T12:11:39;101249.97;;;28.11;50.89
64889;BME280;51386;53.082;8.816;2023-09-12T12:14:16;101243.22;;;27.99;51.47
64889;BME280;51386;53.082;8.816;2023-09-12T12:16:45;101239.78;;;27.83;51.27
64889;BME280;51386;53.082;8.816;2023-09-12T12:19:14;101225.16;;;27.79;51.60
64889;BME280;51386;53.082;8.816;2023-09-12T12:21:42;101221.41;;;27.75;51.66
64889;BME280;51386;53.082;8.816;2023-09-12T12:24:11;101222.22;;;27.71;51.46
64889;BME280;51386;53.082;8.816;2023-09-12T12:26:42;101227.09;;;27.74;51.44
64889;BME280;51386;53.082;8.816;2023-09-12T12:29:10;101231.13;;;27.81;51.76
64889;BME280;51386;53.082;8.816;2023-09-12T12:31:38;101231.91;;;27.87;51.24
64889;BME280;51386;53.082;8.816;2023-09-12T12:34:06;101223.59;;;27.68;51.25
64889;BME280;51386;53.082;8.816;2023-09-12T12:36:55;101223.56;;;27.73;51.56
64889;BME280;51386;53.082;8.816;2023-09-12T12:39:25;101218.16;;;27.68;51.67
64889;BME280;51386;53.082;8.816;2023-09-12T12:41:54;101222.25;;;27.66;51.87
64889;BME280;51386;53.082;8.816;2023-09-12T12:44:21;101216.28;;;27.74;51.88
64889;BME280;51386;53.082;8.816;2023-09-12T12:46:49;101216.47;;;27.87;51.61
64889;BME280;51386;53.082;8.816;2023-09-12T12:49:17;101208.34;;;27.87;50.92
64889;BME280;51386;53.082;8.816;2023-09-12T12:51:45;101215.16;;;27.80;51.15
64889;BME280;51386;53.082;8.816;2023-09-12T12:54:14;101207.81;;;27.85;51.06
64889;BME280;51386;53.082;8.816;2023-09-12T12:56:43;101207.00;;;27.90;50.53
64889;BME280;51386;53.082;8.816;2023-09-12T12:59:12;101215.75;;;27.72;50.26
64889;BME280;51386;53.082;8.816;2023-09-12T13:01:40;101218.16;;;27.73;50.24